Weather at Supadio Airport

Public forecast

Using degrees Celsius for public forecast. Weather courtesy of forecast.io.

Current aviation weather report (METAR) for Supadio Airport

2024/05/25 05:00 (retrieved 34 minutes ago)

WIOO 250500Z 21006KT 9999 FEW012CB BKN013 31/27 Q1009 NOSIG

Closest aviation forecast (TAF) to Supadio Airport

Forecast is more than 6 hours old.

Closest forecast is Nairobi Wilson Airport, 4,358.4 nm (8,071.7 km) W.

2024/05/24 18:57 (retrieved 11 hours ago)

TAF TAF HKNW 241700Z 2418/2518 VRB02KT 9999 BKN022 BECMG 2420/2423 SCT018 BECMG 2508/2511 16010KT BKN022